sensor_id;sensor_type;location;lat;lon;timestamp;pressure;altitude;pressure_sealevel;temperature;humidity
41062;BME280;26812;42.662;23.352;2023-10-19T00:00:13;95001.03;;;8.28;78.10
41062;BME280;26812;42.662;23.352;2023-10-19T00:02:46;95006.31;;;8.47;76.62
41062;BME280;26812;42.662;23.352;2023-10-19T00:05:19;95008.19;;;8.05;77.84
41062;BME280;26812;42.662;23.352;2023-10-19T00:07:45;95000.84;;;7.97;78.28
41062;BME280;26812;42.662;23.352;2023-10-19T00:10:11;94985.72;;;7.73;79.89
41062;BME280;26812;42.662;23.352;2023-10-19T00:12:41;94996.84;;;8.22;78.27
41062;BME280;26812;42.662;23.352;2023-10-19T00:15:09;94987.59;;;7.87;79.15
41062;BME280;26812;42.662;23.352;2023-10-19T00:17:35;94991.97;;;8.24;78.67
41062;BME280;26812;42.662;23.352;2023-10-19T00:20:03;94979.16;;;7.93;78.68
41062;BME280;26812;42.662;23.352;2023-10-19T00:22:52;94970.19;;;8.25;77.72
41062;BME280;26812;42.662;23.352;2023-10-19T00:25:18;94971.50;;;8.14;78.05
41062;BME280;26812;42.662;23.352;2023-10-19T00:27:44;94962.88;;;8.03;79.84
41062;BME280;26812;42.662;23.352;2023-10-19T00:30:10;94976.69;;;8.10;79.92
41062;BME280;26812;42.662;23.352;2023-10-19T00:32:36;94959.00;;;8.37;79.15
41062;BME280;26812;42.662;23.352;2023-10-19T00:35:05;94971.50;;;8.28;79.16
41062;BME280;26812;42.662;23.352;2023-10-19T00:37:46;94935.22;;;8.44;77.47
41062;BME280;26812;42.662;23.352;2023-10-19T00:40:13;94973.28;;;8.46;76.97
41062;BME280;26812;42.662;23.352;2023-10-19T00:42:52;94968.13;;;8.22;78.20
41062;BME280;26812;42.662;23.352;2023-10-19T00:45:20;94967.13;;;8.46;77.76
41062;BME280;26812;42.662;23.352;2023-10-19T00:47:51;94953.31;;;8.11;78.68
41062;BME280;26812;42.662;23.352;2023-10-19T00:50:18;94956.91;;;7.93;79.34
41062;BME280;26812;42.662;23.352;2023-10-19T00:52:48;94959.59;;;7.93;79.32
41062;BME280;26812;42.662;23.352;2023-10-19T00:55:17;94957.19;;;7.91;79.31
41062;BME280;26812;42.662;23.352;2023-10-19T00:57:47;94951.75;;;7.96;78.60
41062;BME280;26812;42.662;23.352;2023-10-19T01:00:14;94959.88;;;8.32;77.73
41062;BME280;26812;42.662;23.352;2023-10-19T01:03:00;94959.75;;;8.51;75.95
41062;BME280;26812;42.662;23.352;2023-10-19T01:05:26;94968.81;;;8.42;76.13
41062;BME280;26812;42.662;23.352;2023-10-19T01:08:01;94964.44;;;8.46;75.83
41062;BME280;26812;42.662;23.352;2023-10-19T01:10:28;94971.69;;;8.31;75.80
41062;BME280;26812;42.662;23.352;2023-10-19T01:12:54;94976.78;;;7.92;76.40
41062;BME280;26812;42.662;23.352;2023-10-19T01:15:21;94973.41;;;7.86;78.75
41062;BME280;26812;42.662;23.352;2023-10-19T01:17:53;94954.81;;;7.62;79.48
41062;BME280;26812;42.662;23.352;2023-10-19T01:20:24;94978.56;;;8.10;77.99
41062;BME280;26812;42.662;23.352;2023-10-19T01:23:00;94982.53;;;8.26;76.67
41062;BME280;26812;42.662;23.352;2023-10-19T01:28:09;94981.94;;;7.74;78.07
41062;BME280;26812;42.662;23.352;2023-10-19T01:30:36;94970.09;;;7.62;79.92
41062;BME280;26812;42.662;23.352;2023-10-19T01:33:03;94967.81;;;7.55;79.82
41062;BME280;26812;42.662;23.352;2023-10-19T01:35:29;94966.84;;;8.06;78.85
41062;BME280;26812;42.662;23.352;2023-10-19T01:38:15;94956.81;;;8.12;76.97
41062;BME280;26812;42.662;23.352;2023-10-19T01:40:40;94959.09;;;7.91;77.86
41062;BME280;26812;42.662;23.352;2023-10-19T01:43:12;94960.59;;;7.69;79.47
41062;BME280;26812;42.662;23.352;2023-10-19T01:45:45;94958.59;;;8.02;78.96
41062;BME280;26812;42.662;23.352;2023-10-19T01:48:11;94958.91;;;7.87;79.66
41062;BME280;26812;42.662;23.352;2023-10-19T01:50:38;94963.94;;;8.30;77.64
41062;BME280;26812;42.662;23.352;2023-10-19T01:53:04;94971.13;;;8.34;77.76
41062;BME280;26812;42.662;23.352;2023-10-19T01:55:38;94969.72;;;7.96;78.68
41062;BME280;26812;42.662;23.352;2023-10-19T01:58:03;94972.59;;;8.13;79.26
41062;BME280;26812;42.662;23.352;2023-10-19T02:00:29;94970.22;;;8.39;78.39
41062;BME280;26812;42.662;23.352;2023-10-19T02:02:54;94973.28;;;8.46;77.42
41062;BME280;26812;42.662;23.352;2023-10-19T02:05:21;94970.59;;;8.46;77.77
41062;BME280;26812;42.662;23.352;2023-10-19T02:07:47;94958.81;;;8.33;78.28
41062;BME280;26812;42.662;23.352;2023-10-19T02:10:12;94955.72;;;7.99;79.38
41062;BME280;26812;42.662;23.352;2023-10-19T02:12:38;94948.66;;;8.03;80.50
41062;BME280;26812;42.662;23.352;2023-10-19T02:15:07;94944.34;;;8.43;77.42
41062;BME280;26812;42.662;23.352;2023-10-19T02:17:33;94945.25;;;8.38;77.05
41062;BME280;26812;42.662;23.352;2023-10-19T02:19:59;94955.59;;;8.31;78.49
41062;BME280;26812;42.662;23.352;2023-10-19T02:22:24;94968.81;;;8.14;79.57
41062;BME280;26812;42.662;23.352;2023-10-19T02:24:49;94978.97;;;8.17;79.49
41062;BME280;26812;42.662;23.352;2023-10-19T02:27:15;94981.16;;;8.29;79.30
41062;BME280;26812;42.662;23.352;2023-10-19T02:29:40;94972.72;;;8.35;79.16
41062;BME280;26812;42.662;23.352;2023-10-19T02:32:07;94973.41;;;8.41;78.74
41062;BME280;26812;42.662;23.352;2023-10-19T02:34:32;94968.72;;;8.33;78.78
41062;BME280;26812;42.662;23.352;2023-10-19T02:36:59;94959.88;;;8.19;79.30
41062;BME280;26812;42.662;23.352;2023-10-19T02:39:26;94975.97;;;8.82;76.96
41062;BME280;26812;42.662;23.352;2023-10-19T02:41:53;94969.50;;;8.83;77.05
41062;BME280;26812;42.662;23.352;2023-10-19T02:44:20;94959.47;;;8.75;76.60
41062;BME280;26812;42.662;23.352;2023-10-19T02:46:47;94970.66;;;8.68;77.80
41062;BME280;26812;42.662;23.352;2023-10-19T02:49:14;94965.63;;;8.26;79.39
41062;BME280;26812;42.662;23.352;2023-10-19T02:51:44;94966.63;;;8.57;78.50
41062;BME280;26812;42.662;23.352;2023-10-19T02:54:11;94959.69;;;8.29;79.25
41062;BME280;26812;42.662;23.352;2023-10-19T02:56:44;94976.69;;;8.38;79.02
41062;BME280;26812;42.662;23.352;2023-10-19T02:59:14;94981.34;;;8.32;79.35
41062;BME280;26812;42.662;23.352;2023-10-19T03:01:42;94977.38;;;8.16;79.99
41062;BME280;26812;42.662;23.352;2023-10-19T03:04:10;94960.66;;;8.19;79.57
41062;BME280;26812;42.662;23.352;2023-10-19T03:06:38;94970.19;;;8.53;79.03
41062;BME280;26812;42.662;23.352;2023-10-19T03:09:06;94958.47;;;8.49;78.12
41062;BME280;26812;42.662;23.352;2023-10-19T03:11:40;94954.41;;;8.37;78.85
41062;BME280;26812;42.662;23.352;2023-10-19T03:14:09;94955.09;;;8.43;78.33
41062;BME280;26812;42.662;23.352;2023-10-19T03:16:36;94957.97;;;8.47;77.88
41062;BME280;26812;42.662;23.352;2023-10-19T03:19:02;94959.53;;;8.61;77.95
41062;BME280;26812;42.662;23.352;2023-10-19T03:21:29;94960.28;;;8.76;76.47
41062;BME280;26812;42.662;23.352;2023-10-19T03:24:10;94961.13;;;8.62;77.38
41062;BME280;26812;42.662;23.352;2023-10-19T03:26:51;94964.53;;;8.90;75.91
41062;BME280;26812;42.662;23.352;2023-10-19T03:29:17;94953.19;;;8.80;75.37
41062;BME280;26812;42.662;23.352;2023-10-19T03:31:56;94969.38;;;8.66;75.45
41062;BME280;26812;42.662;23.352;2023-10-19T03:34:21;94966.25;;;8.36;77.43
41062;BME280;26812;42.662;23.352;2023-10-19T03:36:49;94963.56;;;8.36;78.37
41062;BME280;26812;42.662;23.352;2023-10-19T03:39:16;94939.38;;;8.23;77.54
41062;BME280;26812;42.662;23.352;2023-10-19T03:41:43;94952.34;;;8.34;77.25
41062;BME280;26812;42.662;23.352;2023-10-19T03:44:12;94955.63;;;8.04;78.78
41062;BME280;26812;42.662;23.352;2023-10-19T03:46:44;94945.78;;;7.99;79.93
41062;BME280;26812;42.662;23.352;2023-10-19T03:49:22;94935.22;;;8.17;78.40
41062;BME280;26812;42.662;23.352;2023-10-19T03:51:48;94933.03;;;8.32;76.90
41062;BME280;26812;42.662;23.352;2023-10-19T03:54:43;94944.00;;;8.08;78.75
41062;BME280;26812;42.662;23.352;2023-10-19T03:57:14;94931.38;;;7.82;78.86
41062;BME280;26812;42.662;23.352;2023-10-19T03:59:49;94935.56;;;7.74;79.83
41062;BME280;26812;42.662;23.352;2023-10-19T04:02:17;94937.63;;;7.91;79.95
41062;BME280;26812;42.662;23.352;2023-10-19T04:04:46;94933.97;;;7.87;79.33
41062;BME280;26812;42.662;23.352;2023-10-19T04:07:14;94935.16;;;8.08;78.05
41062;BME280;26812;42.662;23.352;2023-10-19T04:09:50;94934.38;;;7.66;79.53
41062;BME280;26812;42.662;23.352;2023-10-19T04:12:40;94942.19;;;7.90;79.91
41062;BME280;26812;42.662;23.352;2023-10-19T04:15:10;94947.34;;;8.14;76.84
41062;BME280;26812;42.662;23.352;2023-10-19T04:17:45;94946.78;;;7.90;77.31
41062;BME280;26812;42.662;23.352;2023-10-19T04:20:12;94940.31;;;7.63;78.85
41062;BME280;26812;42.662;23.352;2023-10-19T04:22:48;94942.44;;;7.34;80.64
41062;BME280;26812;42.662;23.352;2023-10-19T04:25:16;94938.50;;;7.59;80.36
41062;BME280;26812;42.662;23.352;2023-10-19T04:27:42;94939.44;;;7.68;80.24
41062;BME280;26812;42.662;23.352;2023-10-19T04:30:09;94945.16;;;7.61;79.62
41062;BME280;26812;42.662;23.352;2023-10-19T04:32:48;94936.84;;;7.90;77.74
41062;BME280;26812;42.662;23.352;2023-10-19T04:35:15;94919.75;;;7.45;78.71
41062;BME280;26812;42.662;23.352;2023-10-19T04:37:47;94935.50;;;7.33;80.65
41062;BME280;26812;42.662;23.352;2023-10-19T04:40:12;94928.88;;;7.44;79.51
41062;BME280;26812;42.662;23.352;2023-10-19T04:42:38;94917.38;;;7.71;78.70
41062;BME280;26812;42.662;23.352;2023-10-19T04:45:04;94934.16;;;7.76;78.28
41062;BME280;26812;42.662;23.352;2023-10-19T04:47:31;94910.25;;;7.66;78.83
41062;BME280;26812;42.662;23.352;2023-10-19T04:50:00;94918.47;;;7.84;77.35
41062;BME280;26812;42.662;23.352;2023-10-19T04:52:26;94922.25;;;7.83;77.55
41062;BME280;26812;42.662;23.352;2023-10-19T04:54:51;94892.25;;;7.39;77.61
41062;BME280;26812;42.662;23.352;2023-10-19T04:57:19;94888.16;;;7.14;79.94
41062;BME280;26812;42.662;23.352;2023-10-19T04:59:46;94924.50;;;7.62;79.64
41062;BME280;26812;42.662;23.352;2023-10-19T05:02:11;94909.38;;;7.25;80.46
41062;BME280;26812;42.662;23.352;2023-10-19T05:04:37;94905.44;;;7.50;80.32
41062;BME280;26812;42.662;23.352;2023-10-19T05:07:02;94932.84;;;7.46;79.84
41062;BME280;26812;42.662;23.352;2023-10-19T05:09:29;94918.84;;;7.50;79.89
41062;BME280;26812;42.662;23.352;2023-10-19T05:11:55;94929.09;;;7.47;79.68
41062;BME280;26812;42.662;23.352;2023-10-19T05:14:20;94929.91;;;7.75;78.99
41062;BME280;26812;42.662;23.352;2023-10-19T05:16:46;94914.69;;;7.85;77.69
41062;BME280;26812;42.662;23.352;2023-10-19T05:19:11;94938.25;;;8.01;76.97
41062;BME280;26812;42.662;23.352;2023-10-19T05:21:36;94909.22;;;7.35;79.21
41062;BME280;26812;42.662;23.352;2023-10-19T05:24:02;94937.25;;;7.84;78.15
41062;BME280;26812;42.662;23.352;2023-10-19T05:26:27;94927.59;;;7.55;79.03
41062;BME280;26812;42.662;23.352;2023-10-19T05:28:53;94921.25;;;7.78;79.09
41062;BME280;26812;42.662;23.352;2023-10-19T05:31:19;94928.59;;;7.87;77.92
41062;BME280;26812;42.662;23.352;2023-10-19T05:33:45;94927.50;;;7.60;79.71
41062;BME280;26812;42.662;23.352;2023-10-19T05:36:13;94937.72;;;7.86;79.16
41062;BME280;26812;42.662;23.352;2023-10-19T05:38:39;94928.44;;;8.33;79.06
41062;BME280;26812;42.662;23.352;2023-10-19T05:41:05;94947.66;;;8.98;74.55
41062;BME280;26812;42.662;23.352;2023-10-19T05:43:30;94923.94;;;8.56;75.49
41062;BME280;26812;42.662;23.352;2023-10-19T05:45:56;94947.53;;;9.03;75.05
41062;BME280;26812;42.662;23.352;2023-10-19T05:48:22;94945.16;;;9.02;75.44
41062;BME280;26812;42.662;23.352;2023-10-19T05:50:49;94943.56;;;9.01;75.43
41062;BME280;26812;42.662;23.352;2023-10-19T05:53:15;94944.22;;;9.07;74.65
41062;BME280;26812;42.662;23.352;2023-10-19T05:55:44;94948.03;;;9.59;73.15
41062;BME280;26812;42.662;23.352;2023-10-19T05:58:10;94956.94;;;9.68;73.18
41062;BME280;26812;42.662;23.352;2023-10-19T06:00:35;94940.97;;;9.72;71.75
41062;BME280;26812;42.662;23.352;2023-10-19T06:03:01;94931.72;;;9.55;72.98
41062;BME280;26812;42.662;23.352;2023-10-19T06:05:28;94952.28;;;9.51;73.75
41062;BME280;26812;42.662;23.352;2023-10-19T06:07:55;94946.69;;;9.79;72.68
41062;BME280;26812;42.662;23.352;2023-10-19T06:10:21;94958.97;;;9.62;73.21
41062;BME280;26812;42.662;23.352;2023-10-19T06:12:51;94961.44;;;9.50;74.60
41062;BME280;26812;42.662;23.352;2023-10-19T06:15:18;94953.00;;;9.74;72.07
41062;BME280;26812;42.662;23.352;2023-10-19T06:17:44;94956.28;;;9.62;73.12
41062;BME280;26812;42.662;23.352;2023-10-19T06:20:12;94959.31;;;9.70;73.20
41062;BME280;26812;42.662;23.352;2023-10-19T06:22:58;94929.19;;;9.59;73.25
41062;BME280;26812;42.662;23.352;2023-10-19T06:25:31;94951.31;;;9.87;72.65
41062;BME280;26812;42.662;23.352;2023-10-19T06:27:57;94935.44;;;9.77;71.75
41062;BME280;26812;42.662;23.352;2023-10-19T06:30:23;94947.00;;;9.77;72.50
41062;BME280;26812;42.662;23.352;2023-10-19T06:32:54;94950.06;;;9.93;72.31
41062;BME280;26812;42.662;23.352;2023-10-19T06:35:21;94945.28;;;10.21;71.20
41062;BME280;26812;42.662;23.352;2023-10-19T06:37:47;94930.78;;;10.00;71.85
41062;BME280;26812;42.662;23.352;2023-10-19T06:40:14;94948.63;;;10.26;71.14
41062;BME280;26812;42.662;23.352;2023-10-19T06:42:45;94944.66;;;10.33;70.68
41062;BME280;26812;42.662;23.352;2023-10-19T06:45:11;94958.75;;;10.21;71.77
41062;BME280;26812;42.662;23.352;2023-10-19T06:47:43;94927.38;;;10.25;71.30
41062;BME280;26812;42.662;23.352;2023-10-19T06:50:13;94951.03;;;10.71;70.42
41062;BME280;26812;42.662;23.352;2023-10-19T06:52:41;94959.63;;;10.73;70.16
41062;BME280;26812;42.662;23.352;2023-10-19T06:55:08;94956.00;;;10.78;70.16
41062;BME280;26812;42.662;23.352;2023-10-19T06:57:47;94965.00;;;10.56;70.18
41062;BME280;26812;42.662;23.352;2023-10-19T07:00:17;94951.06;;;10.88;68.48
41062;BME280;26812;42.662;23.352;2023-10-19T07:02:48;94939.31;;;11.19;69.11
41062;BME280;26812;42.662;23.352;2023-10-19T07:05:14;94938.97;;;11.29;68.85
41062;BME280;26812;42.662;23.352;2023-10-19T07:07:44;94936.47;;;11.15;68.24
41062;BME280;26812;42.662;23.352;2023-10-19T07:10:11;94928.88;;;10.92;68.70
41062;BME280;26812;42.662;23.352;2023-10-19T07:12:43;94927.25;;;11.25;69.14
41062;BME280;26812;42.662;23.352;2023-10-19T07:15:10;94934.84;;;11.40;68.91
41062;BME280;26812;42.662;23.352;2023-10-19T07:17:45;94931.53;;;11.35;67.09
41062;BME280;26812;42.662;23.352;2023-10-19T07:20:12;94950.75;;;10.99;69.21
41062;BME280;26812;42.662;23.352;2023-10-19T07:22:53;94951.50;;;11.25;68.06
41062;BME280;26812;42.662;23.352;2023-10-19T07:25:19;94947.69;;;11.43;67.99
41062;BME280;26812;42.662;23.352;2023-10-19T07:27:49;94941.94;;;11.54;67.00
41062;BME280;26812;42.662;23.352;2023-10-19T07:30:16;94916.47;;;11.80;65.77
41062;BME280;26812;42.662;23.352;2023-10-19T07:32:46;94911.16;;;11.55;65.68
41062;BME280;26812;42.662;23.352;2023-10-19T07:35:14;94912.25;;;11.54;67.28
41062;BME280;26812;42.662;23.352;2023-10-19T07:37:39;94940.72;;;11.89;65.72
41062;BME280;26812;42.662;23.352;2023-10-19T07:40:05;94931.31;;;11.48;66.45
41062;BME280;26812;42.662;23.352;2023-10-19T07:42:31;94950.97;;;11.66;66.65
41062;BME280;26812;42.662;23.352;2023-10-19T07:44:58;94945.25;;;11.68;66.90
41062;BME280;26812;42.662;23.352;2023-10-19T07:47:24;94946.28;;;12.22;66.47
41062;BME280;26812;42.662;23.352;2023-10-19T07:49:50;94960.59;;;12.52;64.70
41062;BME280;26812;42.662;23.352;2023-10-19T07:52:17;94948.28;;;12.63;64.79
41062;BME280;26812;42.662;23.352;2023-10-19T07:54:42;94931.09;;;12.68;63.84
41062;BME280;26812;42.662;23.352;2023-10-19T07:57:08;94940.66;;;12.86;62.74
41062;BME280;26812;42.662;23.352;2023-10-19T07:59:34;94937.94;;;13.07;63.26
41062;BME280;26812;42.662;23.352;2023-10-19T08:02:03;94943.78;;;13.51;62.98
41062;BME280;26812;42.662;23.352;2023-10-19T08:04:29;94949.31;;;14.12;60.39
41062;BME280;26812;42.662;23.352;2023-10-19T08:06:55;94947.94;;;14.79;59.47
41062;BME280;26812;42.662;23.352;2023-10-19T08:09:23;94943.13;;;15.56;54.05
41062;BME280;26812;42.662;23.352;2023-10-19T08:11:50;94942.19;;;14.56;56.57
41062;BME280;26812;42.662;23.352;2023-10-19T08:14:20;94946.16;;;14.71;57.31
41062;BME280;26812;42.662;23.352;2023-10-19T08:16:45;94935.88;;;15.04;56.52
41062;BME280;26812;42.662;23.352;2023-10-19T08:19:11;94937.91;;;15.35;53.88
41062;BME280;26812;42.662;23.352;2023-10-19T08:21:37;94939.94;;;14.98;55.00
41062;BME280;26812;42.662;23.352;2023-10-19T08:24:09;94936.53;;;15.41;54.97
41062;BME280;26812;42.662;23.352;2023-10-19T08:26:41;94938.22;;;16.21;51.95
41062;BME280;26812;42.662;23.352;2023-10-19T08:29:08;94922.06;;;17.14;49.61
41062;BME280;26812;42.662;23.352;2023-10-19T08:31:42;94935.75;;;17.37;48.43
41062;BME280;26812;42.662;23.352;2023-10-19T08:34:08;94939.16;;;17.92;46.66
41062;BME280;26812;42.662;23.352;2023-10-19T08:36:37;94915.09;;;17.97;46.35
41062;BME280;26812;42.662;23.352;2023-10-19T08:39:09;94926.44;;;18.72;45.73
41062;BME280;26812;42.662;23.352;2023-10-19T08:41:38;94931.78;;;19.21;42.63
41062;BME280;26812;42.662;23.352;2023-10-19T08:44:07;94935.75;;;17.76;46.18
41062;BME280;26812;42.662;23.352;2023-10-19T08:46:40;94931.56;;;17.62;46.27
41062;BME280;26812;42.662;23.352;2023-10-19T08:49:10;94938.78;;;17.93;46.21
41062;BME280;26812;42.662;23.352;2023-10-19T08:51:37;94925.84;;;17.10;47.03
41062;BME280;26812;42.662;23.352;2023-10-19T08:54:04;94941.25;;;16.51;50.16
41062;BME280;26812;42.662;23.352;2023-10-19T08:56:30;94906.72;;;16.36;50.68
41062;BME280;26812;42.662;23.352;2023-10-19T08:58:56;94938.31;;;16.09;50.61
41062;BME280;26812;42.662;23.352;2023-10-19T09:01:21;94916.81;;;15.72;52.25
41062;BME280;26812;42.662;23.352;2023-10-19T09:03:50;94927.34;;;16.21;50.99
41062;BME280;26812;42.662;23.352;2023-10-19T09:06:16;94939.09;;;16.41;50.45
41062;BME280;26812;42.662;23.352;2023-10-19T09:08:41;94926.09;;;16.66;49.99
41062;BME280;26812;42.662;23.352;2023-10-19T09:11:10;94919.13;;;17.03;48.44
41062;BME280;26812;42.662;23.352;2023-10-19T09:13:47;94920.56;;;16.46;49.83
41062;BME280;26812;42.662;23.352;2023-10-19T09:16:17;94919.94;;;15.59;52.49
41062;BME280;26812;42.662;23.352;2023-10-19T09:18:42;94909.72;;;15.83;53.24
41062;BME280;26812;42.662;23.352;2023-10-19T09:21:10;94910.94;;;16.33;52.20
41062;BME280;26812;42.662;23.352;2023-10-19T09:23:49;94882.84;;;16.45;50.22
41062;BME280;26812;42.662;23.352;2023-10-19T09:26:15;94901.59;;;16.66;49.51
41062;BME280;26812;42.662;23.352;2023-10-19T09:28:41;94887.66;;;16.52;50.20
41062;BME280;26812;42.662;23.352;2023-10-19T09:31:06;94876.91;;;16.74;49.48
41062;BME280;26812;42.662;23.352;2023-10-19T09:33:35;94879.66;;;17.75;47.44
41062;BME280;26812;42.662;23.352;2023-10-19T09:36:02;94859.94;;;18.30;45.75
41062;BME280;26812;42.662;23.352;2023-10-19T09:38:29;94849.63;;;18.43;45.01
41062;BME280;26812;42.662;23.352;2023-10-19T09:40:55;94862.13;;;18.71;44.98
41062;BME280;26812;42.662;23.352;2023-10-19T09:43:37;94870.78;;;19.10;44.71
41062;BME280;26812;42.662;23.352;2023-10-19T09:46:08;94847.81;;;19.14;44.02
41062;BME280;26812;42.662;23.352;2023-10-19T09:48:45;94864.75;;;19.27;43.96
41062;BME280;26812;42.662;23.352;2023-10-19T09:51:11;94870.22;;;18.41;45.00
41062;BME280;26812;42.662;23.352;2023-10-19T09:53:38;94854.91;;;17.41;48.03
41062;BME280;26812;42.662;23.352;2023-10-19T09:56:06;94852.16;;;18.33;46.99
41062;BME280;26812;42.662;23.352;2023-10-19T09:58:37;94847.84;;;18.84;45.28
41062;BME280;26812;42.662;23.352;2023-10-19T10:01:05;94849.50;;;18.92;45.65
41062;BME280;26812;42.662;23.352;2023-10-19T10:06:16;94836.28;;;20.09;43.50
41062;BME280;26812;42.662;23.352;2023-10-19T10:08:45;94832.75;;;20.05;43.40
41062;BME280;26812;42.662;23.352;2023-10-19T10:11:25;94824.44;;;20.42;42.04
41062;BME280;26812;42.662;23.352;2023-10-19T10:13:57;94817.41;;;20.45;41.98
41062;BME280;26812;42.662;23.352;2023-10-19T10:16:25;94831.47;;;20.43;41.79
41062;BME280;26812;42.662;23.352;2023-10-19T10:18:54;94838.03;;;19.88;43.25
41062;BME280;26812;42.662;23.352;2023-10-19T10:21:21;94832.50;;;19.77;43.66
41062;BME280;26812;42.662;23.352;2023-10-19T10:23:52;94826.22;;;19.73;43.53
41062;BME280;26812;42.662;23.352;2023-10-19T10:26:23;94820.75;;;19.73;43.51
41062;BME280;26812;42.662;23.352;2023-10-19T10:29:12;94812.13;;;19.67;43.84
41062;BME280;26812;42.662;23.352;2023-10-19T10:31:49;94827.06;;;19.43;44.72
41062;BME280;26812;42.662;23.352;2023-10-19T10:37:06;94798.41;;;20.11;42.48
41062;BME280;26812;42.662;23.352;2023-10-19T10:39:34;94791.19;;;19.89;42.72
41062;BME280;26812;42.662;23.352;2023-10-19T10:42:05;94795.31;;;19.65;42.95
41062;BME280;26812;42.662;23.352;2023-10-19T10:44:41;94774.84;;;19.93;43.15
41062;BME280;26812;42.662;23.352;2023-10-19T10:47:11;94762.31;;;20.50;41.58
41062;BME280;26812;42.662;23.352;2023-10-19T10:49:50;94766.69;;;20.65;41.31
41062;BME280;26812;42.662;23.352;2023-10-19T10:52:28;94759.88;;;19.79;42.80
41062;BME280;26812;42.662;23.352;2023-10-19T10:54:56;94754.69;;;19.27;44.60
41062;BME280;26812;42.662;23.352;2023-10-19T10:57:21;94758.47;;;19.52;44.25
41062;BME280;26812;42.662;23.352;2023-10-19T11:00:03;94750.31;;;20.03;43.47
41062;BME280;26812;42.662;23.352;2023-10-19T11:02:30;94743.50;;;20.41;42.17
41062;BME280;26812;42.662;23.352;2023-10-19T11:04:55;94729.00;;;20.34;42.80
41062;BME280;26812;42.662;23.352;2023-10-19T11:07:21;94736.19;;;20.60;41.74
41062;BME280;26812;42.662;23.352;2023-10-19T11:09:47;94722.88;;;20.55;42.29
41062;BME280;26812;42.662;23.352;2023-10-19T11:12:13;94701.22;;;20.32;41.59
41062;BME280;26812;42.662;23.352;2023-10-19T11:14:56;94709.44;;;20.32;42.06
41062;BME280;26812;42.662;23.352;2023-10-19T11:17:23;94720.97;;;20.69;41.61
41062;BME280;26812;42.662;23.352;2023-10-19T11:19:59;94712.75;;;20.76;41.47
41062;BME280;26812;42.662;23.352;2023-10-19T11:22:27;94675.59;;;20.68;41.33
41062;BME280;26812;42.662;23.352;2023-10-19T11:24:53;94712.13;;;21.36;41.19
41062;BME280;26812;42.662;23.352;2023-10-19T11:27:26;94699.59;;;21.71;40.08
41062;BME280;26812;42.662;23.352;2023-10-19T11:29:59;94698.84;;;21.49;39.58
41062;BME280;26812;42.662;23.352;2023-10-19T11:32:25;94684.34;;;21.24;40.31
41062;BME280;26812;42.662;23.352;2023-10-19T11:34:53;94682.38;;;21.81;39.57
41062;BME280;26812;42.662;23.352;2023-10-19T11:37:19;94691.34;;;22.14;38.88
41062;BME280;26812;42.662;23.352;2023-10-19T11:39:44;94683.94;;;22.07;39.13
41062;BME280;26812;42.662;23.352;2023-10-19T11:42:11;94671.69;;;22.40;38.44
41062;BME280;26812;42.662;23.352;2023-10-19T11:44:38;94666.28;;;22.15;38.87
41062;BME280;26812;42.662;23.352;2023-10-19T11:47:03;94665.81;;;22.38;38.39
41062;BME280;26812;42.662;23.352;2023-10-19T11:49:29;94673.31;;;22.02;38.92
41062;BME280;26812;42.662;23.352;2023-10-19T11:51:54;94660.06;;;21.68;39.35
41062;BME280;26812;42.662;23.352;2023-10-19T11:54:20;94654.19;;;21.77;39.58
41062;BME280;26812;42.662;23.352;2023-10-19T11:56:46;94667.84;;;22.13;39.18
41062;BME280;26812;42.662;23.352;2023-10-19T11:59:11;94659.16;;;22.39;38.26
41062;BME280;26812;42.662;23.352;2023-10-19T12:01:37;94660.59;;;22.58;38.07
41062;BME280;26812;42.662;23.352;2023-10-19T12:04:04;94657.66;;;23.04;37.52
41062;BME280;26812;42.662;23.352;2023-10-19T12:06:30;94650.53;;;23.10;36.88
41062;BME280;26812;42.662;23.352;2023-10-19T12:08:56;94660.81;;;22.96;37.26
41062;BME280;26812;42.662;23.352;2023-10-19T12:11:24;94655.38;;;22.88;37.28
41062;BME280;26812;42.662;23.352;2023-10-19T12:13:49;94665.72;;;23.26;37.06
41062;BME280;26812;42.662;23.352;2023-10-19T12:16:16;94648.56;;;23.66;36.50
41062;BME280;26812;42.662;23.352;2023-10-19T12:18:42;94640.25;;;24.11;35.28
41062;BME280;26812;42.662;23.352;2023-10-19T12:21:08;94636.97;;;24.23;35.08
41062;BME280;26812;42.662;23.352;2023-10-19T12:23:40;94639.84;;;24.12;35.82
41062;BME280;26812;42.662;23.352;2023-10-19T12:26:06;94621.34;;;24.51;34.37
41062;BME280;26812;42.662;23.352;2023-10-19T12:28:40;94631.50;;;24.84;34.48
41062;BME280;26812;42.662;23.352;2023-10-19T12:31:08;94612.34;;;24.73;33.72
41062;BME280;26812;42.662;23.352;2023-10-19T12:33:35;94604.69;;;24.88;33.32
41062;BME280;26812;42.662;23.352;2023-10-19T12:36:01;94619.38;;;24.78;33.77
41062;BME280;26812;42.662;23.352;2023-10-19T12:38:26;94619.47;;;24.71;33.92
41062;BME280;26812;42.662;23.352;2023-10-19T12:40:52;94617.25;;;25.20;33.62
41062;BME280;26812;42.662;23.352;2023-10-19T12:43:20;94592.91;;;25.61;32.78
41062;BME280;26812;42.662;23.352;2023-10-19T12:45:47;94623.03;;;25.76;32.53
41062;BME280;26812;42.662;23.352;2023-10-19T12:48:19;94602.38;;;25.84;32.36
41062;BME280;26812;42.662;23.352;2023-10-19T12:50:45;94619.69;;;26.27;31.89
41062;BME280;26812;42.662;23.352;2023-10-19T12:53:11;94613.38;;;26.27;31.61
41062;BME280;26812;42.662;23.352;2023-10-19T12:55:37;94610.50;;;26.14;32.11
41062;BME280;26812;42.662;23.352;2023-10-19T12:58:04;94607.19;;;26.43;31.29
41062;BME280;26812;42.662;23.352;2023-10-19T13:00:35;94604.41;;;26.03;31.38
41062;BME280;26812;42.662;23.352;2023-10-19T13:03:10;94605.50;;;25.86;32.23
41062;BME280;26812;42.662;23.352;2023-10-19T13:05:40;94599.91;;;25.66;31.92
41062;BME280;26812;42.662;23.352;2023-10-19T13:08:07;94605.31;;;25.96;32.11
41062;BME280;26812;42.662;23.352;2023-10-19T13:10:34;94602.34;;;26.07;31.36